APL Guam — WAPU — position and weather

sailwx.info

Track history (hours):
 
Tides and Currents Weather Stations Pressure Air Temp Water Temp Dewpoint Dewpoint Depression Visibility Wind Speed Wind Dir Waves Ship Positions

APL Guam

Owner: R & D Investments Inc, Jacksonville, FL. More information available from US FCC via Universal Licensing System and Coast Guard Vessel Documentation Center.

Last reported at 2018-Jan-19 18:00 UTC. Time now 2018-Jan-22 15:47 UTC.
Position N 16°24' E 144°06'.

; draft 7.5 m.

Type: Ship. MMSI: 367696080.

Wind from 080 at 8 knots

Barometer 1011.5 mb
Air temperature 25.6 ° C
Visibility: greater than 10.8 NM
Dewpoint 21.4 ° C

Date/timePositionNaut miles runAvg speedWind from/ knotsBaromVisibWave heightAir tempDewpointWater temp
2018-Jan-19 18:00N 16°24' E 144°06'21317.7 080 / 81011.510.8 25.621.4
2018-Jan-19 06:00N 19°54' E 143°30'76515.9 360 / 131012.510.8 31.125.7
2018-Jan-17 06:00N 32°24' E 140°42'   200 / 221014.010.8 19.414.8
2018-Jan-12 06:00N 33°06' E 135°30'11514.8 320 / 141021.227.0 12.2 0.1
2018-Jan-11 22:13N 32°44' E 133°15'6912.3
2018-Jan-11 16:37N 33°15' E 132°01'214.7
2018-Jan-11 16:30N 33°16' E 132°00'714.5
2018-Jan-11 16:00N 33°23' E 131°56'814.8
2018-Jan-11 15:27N 33°30' E 131°52'714.8
2018-Jan-11 15:00N 33°36' E 131°48'815.3
2018-Jan-11 14:30N 33°43' E 131°44'714.0
2018-Jan-11 14:00N 33°46' E 131°37'815.2
2018-Jan-11 13:30N 33°48' E 131°28'714.7
2018-Jan-11 13:01N 33°50' E 131°20'713.4
2018-Jan-11 12:30N 33°51' E 131°12'510.0
2018-Jan-11 12:00N 33°54' E 131°07'4 8.7
2018-Jan-11 11:30N 33°57' E 131°03'4 8.2
2018-Jan-11 11:01N 33°58' E 130°58'5 9.4
2018-Jan-11 10:30N 33°55' E 130°53'5 9.2
2018-Jan-11 10:00N 33°60' E 130°52'611.2
2018-Jan-11 09:30N 34°04' E 130°48'611.7
2018-Jan-11 09:00N 34°07' E 130°42'612.0
2018-Jan-11 08:30N 34°10' E 130°36'612.0
2018-Jan-11 08:00N 34°14' E 130°30'612.0
2018-Jan-11 07:30N 34°17' E 130°24'612.0
2018-Jan-11 07:00N 34°21' E 130°18'612.2
2018-Jan-11 06:30N 34°25' E 130°13'612.1
2018-Jan-11 06:00N 34°28' E 130°06'  
Track history (hours):
 
Tides and Currents Weather Stations Pressure Air Temp Water Temp Dewpoint Dewpoint Depression Visibility Wind Speed Wind Dir Waves Ship Positions

APL Guam

Owner: R & D Investments Inc, Jacksonville, FL. More information available from US FCC via Universal Licensing System and Coast Guard Vessel Documentation Center.

Last reported at 2018-Jan-19 18:00 UTC. Time now 2018-Jan-22 15:47 UTC.
Position N 16°24' E 144°06'.

; draft 7.5 m.

Type: Ship. MMSI: 367696080.

Wind from 080 at 8 knots

Barometer 1011.5 mb
Air temperature 25.6 ° C
Visibility: greater than 10.8 NM
Dewpoint 21.4 ° C

Date/timePositionNaut miles runAvg speedWind from/ knotsBaromVisibWave heightAir tempDewpointWater temp
2018-Jan-19 18:00N 16°24' E 144°06'21317.7 080 / 81011.510.8 25.621.4
2018-Jan-19 06:00N 19°54' E 143°30'76515.9 360 / 131012.510.8 31.125.7
2018-Jan-17 06:00N 32°24' E 140°42'   200 / 221014.010.8 19.414.8
2018-Jan-12 06:00N 33°06' E 135°30'11514.8 320 / 141021.227.0 12.2 0.1
2018-Jan-11 22:13N 32°44' E 133°15'6912.3
2018-Jan-11 16:37N 33°15' E 132°01'214.7
2018-Jan-11 16:30N 33°16' E 132°00'714.5
2018-Jan-11 16:00N 33°23' E 131°56'814.8
2018-Jan-11 15:27N 33°30' E 131°52'714.8
2018-Jan-11 15:00N 33°36' E 131°48'815.3
2018-Jan-11 14:30N 33°43' E 131°44'714.0
2018-Jan-11 14:00N 33°46' E 131°37'815.2
2018-Jan-11 13:30N 33°48' E 131°28'714.7
2018-Jan-11 13:01N 33°50' E 131°20'713.4
2018-Jan-11 12:30N 33°51' E 131°12'510.0
2018-Jan-11 12:00N 33°54' E 131°07'4 8.7
2018-Jan-11 11:30N 33°57' E 131°03'4 8.2
2018-Jan-11 11:01N 33°58' E 130°58'5 9.4
2018-Jan-11 10:30N 33°55' E 130°53'5 9.2
2018-Jan-11 10:00N 33°60' E 130°52'611.2
2018-Jan-11 09:30N 34°04' E 130°48'611.7
2018-Jan-11 09:00N 34°07' E 130°42'612.0
2018-Jan-11 08:30N 34°10' E 130°36'612.0
2018-Jan-11 08:00N 34°14' E 130°30'612.0
2018-Jan-11 07:30N 34°17' E 130°24'612.0
2018-Jan-11 07:00N 34°21' E 130°18'612.2
2018-Jan-11 06:30N 34°25' E 130°13'612.1
2018-Jan-11 06:00N 34°28' E 130°06'  

Dump ship's entire track history